createdAt,value
2022-08-09T00:01:54.710Z,3.60
2022-08-09T00:04:34.954Z,3.83
2022-08-09T00:07:07.598Z,2.67
2022-08-09T00:09:41.526Z,2.47
2022-08-09T00:12:22.468Z,6.00
2022-08-09T00:15:06.656Z,4.10
2022-08-09T00:18:10.515Z,3.37
2022-08-09T00:20:25.204Z,3.90
2022-08-09T00:22:54.562Z,5.40
2022-08-09T00:25:32.661Z,3.50
2022-08-09T00:28:04.163Z,3.40
2022-08-09T00:30:33.821Z,3.57
2022-08-09T00:33:03.057Z,2.83
2022-08-09T00:36:52.677Z,3.33
2022-08-09T00:40:10.421Z,3.73
2022-08-09T00:44:15.691Z,7.43
2022-08-09T00:45:03.531Z,3.23
2022-08-09T00:47:43.809Z,4.70
2022-08-09T00:50:15.170Z,4.63
2022-08-09T00:52:44.756Z,3.13
2022-08-09T00:56:39.500Z,5.37
2022-08-09T00:59:10.076Z,5.77
2022-08-09T01:01:44.853Z,3.60
2022-08-09T01:04:28.124Z,3.23
2022-08-09T01:07:38.018Z,4.57
2022-08-09T01:10:32.228Z,4.10
2022-08-09T01:13:11.752Z,2.77
2022-08-09T01:15:51.695Z,4.07
2022-08-09T01:18:30.353Z,3.17
2022-08-09T01:21:19.063Z,2.87
2022-08-09T01:24:04.858Z,3.40
2022-08-09T01:27:01.406Z,3.07
2022-08-09T01:29:54.879Z,2.50
2022-08-09T01:32:34.221Z,4.83
2022-08-09T01:35:28.573Z,3.20
2022-08-09T01:38:10.492Z,4.37
2022-08-09T01:40:53.147Z,3.80
2022-08-09T01:47:31.489Z,5.00
2022-08-09T01:50:06.592Z,2.63
2022-08-09T01:52:43.733Z,3.57
2022-08-09T01:55:14.856Z,5.67
2022-08-09T01:57:50.724Z,4.80
2022-08-09T02:00:35.551Z,2.70
2022-08-09T02:03:13.564Z,4.13
2022-08-09T02:06:45.538Z,2.97
2022-08-09T02:09:41.666Z,3.77
2022-08-09T02:12:21.237Z,2.97
2022-08-09T02:14:56.407Z,3.97
2022-08-09T02:18:01.537Z,4.67
2022-08-09T02:20:26.226Z,4.53
2022-08-09T02:23:08.279Z,3.03
2022-08-09T02:25:49.607Z,3.10
2022-08-09T02:28:36.393Z,3.30
2022-08-09T02:31:14.451Z,3.10
2022-08-09T02:46:44.661Z,5.27
2022-08-09T02:49:20.696Z,4.17
2022-08-09T02:52:11.627Z,3.90
2022-08-09T02:54:51.225Z,4.53
2022-08-09T02:57:26.820Z,4.00
2022-08-09T03:00:20.567Z,5.07
2022-08-09T03:03:00.229Z,4.10
2022-08-09T03:05:34.373Z,3.30
2022-08-09T03:08:06.538Z,3.83
2022-08-09T03:10:39.374Z,3.53
2022-08-09T03:13:15.221Z,4.50
2022-08-09T03:20:35.003Z,5.77
2022-08-09T03:23:24.373Z,4.50
2022-08-09T03:30:28.143Z,3.27
2022-08-09T03:33:53.157Z,4.20
2022-08-09T03:36:27.262Z,4.23
2022-08-09T03:38:58.439Z,2.50
2022-08-09T03:41:44.833Z,5.90
2022-08-09T03:44:16.951Z,11.13
2022-08-09T03:46:50.418Z,5.57
2022-08-09T03:49:58.282Z,4.30
2022-08-09T03:52:29.808Z,5.70
2022-08-09T03:55:09.866Z,8.90
2022-08-09T03:57:44.648Z,7.33
2022-08-09T04:00:28.466Z,18.63
2022-08-09T04:03:01.882Z,32.50
2022-08-09T04:05:33.121Z,48.37
2022-08-09T04:08:10.636Z,52.47
2022-08-09T04:10:40.457Z,54.37
2022-08-09T04:13:11.781Z,40.30
2022-08-09T04:16:18.894Z,36.50
2022-08-09T04:18:34.460Z,32.03
2022-08-09T04:21:05.740Z,30.90
2022-08-09T04:23:39.149Z,18.23
2022-08-09T04:26:12.785Z,15.30
2022-08-09T04:28:46.948Z,16.27
2022-08-09T04:31:16.524Z,17.60
2022-08-09T04:33:56.610Z,27.77
2022-08-09T04:37:06.740Z,24.33
2022-08-09T04:39:40.551Z,25.13
2022-08-09T04:42:12.208Z,25.83
2022-08-09T04:44:49.111Z,21.53
2022-08-09T04:47:18.959Z,21.80
2022-08-09T04:49:56.930Z,14.57
2022-08-09T04:52:29.573Z,16.13
2022-08-09T04:55:06.517Z,13.30
2022-08-09T04:57:53.864Z,9.67
2022-08-09T05:00:31.859Z,10.93
2022-08-09T05:03:12.788Z,14.70
2022-08-09T05:06:06.490Z,13.73
2022-08-09T05:08:43.946Z,11.63
2022-08-09T05:11:22.594Z,8.63
2022-08-09T05:14:05.857Z,7.83
2022-08-09T05:16:59.392Z,7.83
2022-08-09T05:19:46.079Z,7.20
2022-08-09T05:22:33.107Z,7.60
2022-08-09T05:29:22.693Z,10.10
2022-08-09T05:32:01.812Z,10.30
2022-08-09T05:35:12.955Z,4.47
2022-08-09T05:37:47.710Z,9.67
2022-08-09T05:40:19.774Z,3.67
2022-08-09T05:42:52.366Z,13.97
2022-08-09T05:50:35.108Z,5.70
2022-08-09T05:52:55.055Z,4.27
2022-08-09T05:55:25.202Z,4.30
2022-08-09T06:02:33.212Z,5.60
2022-08-09T06:05:05.805Z,2.90
2022-08-09T06:08:05.499Z,3.40
2022-08-09T06:15:30.155Z,2.33
2022-08-09T06:18:04.302Z,3.73
2022-08-09T06:20:42.508Z,7.13
2022-08-09T06:23:55.496Z,3.03
2022-08-09T06:26:28.433Z,5.23
2022-08-09T06:29:16.911Z,3.13
2022-08-09T06:32:17.143Z,5.23
2022-08-09T06:34:50.160Z,5.63
2022-08-09T06:38:06.083Z,6.03
2022-08-09T06:40:36.217Z,2.63
2022-08-09T06:48:00.902Z,4.03
2022-08-09T06:51:14.879Z,3.20
2022-08-09T06:53:45.626Z,2.67
2022-08-09T06:56:30.865Z,2.07
2022-08-09T07:00:56.986Z,2.33
2022-08-09T07:03:52.434Z,3.23
2022-08-09T07:06:22.811Z,3.93
2022-08-09T07:08:56.722Z,4.27
2022-08-09T07:12:38.681Z,3.23
2022-08-09T07:15:54.014Z,2.83
2022-08-09T07:18:50.074Z,2.33
2022-08-09T07:21:20.802Z,3.53
2022-08-09T07:23:56.736Z,2.90
2022-08-09T07:26:27.780Z,5.60
2022-08-09T07:30:17.371Z,3.57
2022-08-09T07:32:47.203Z,5.43
2022-08-09T07:35:20.752Z,6.77
2022-08-09T07:37:54.024Z,6.50
2022-08-09T07:40:41.590Z,3.33
2022-08-09T07:43:18.244Z,6.60
2022-08-09T07:45:47.528Z,2.23
2022-08-09T07:48:25.620Z,7.30
2022-08-09T07:51:09.460Z,3.10
2022-08-09T07:54:06.993Z,4.93
2022-08-09T07:56:48.815Z,6.40
2022-08-09T07:59:25.667Z,3.47
2022-08-09T08:02:09.713Z,2.88
2022-08-09T08:04:40.053Z,3.47
2022-08-09T08:07:14.837Z,3.75
2022-08-09T08:10:08.076Z,4.00
2022-08-09T08:12:43.494Z,4.28
2022-08-09T08:15:16.693Z,5.00
2022-08-09T08:17:53.115Z,8.07
2022-08-09T08:20:29.478Z,7.05
2022-08-09T08:23:03.557Z,11.05
2022-08-09T08:25:54.344Z,6.75
2022-08-09T08:28:37.611Z,7.05
2022-08-09T08:31:14.301Z,8.63
2022-08-09T08:33:53.942Z,4.93
2022-08-09T08:36:29.767Z,5.55
2022-08-09T08:39:00.481Z,7.25
2022-08-09T08:41:50.800Z,4.47
2022-08-09T08:44:28.792Z,9.15
2022-08-09T08:47:04.885Z,6.78
2022-08-09T08:49:46.655Z,4.32
2022-08-09T08:52:52.776Z,5.53
2022-08-09T08:55:11.235Z,4.95
2022-08-09T08:57:56.767Z,3.65
2022-08-09T09:00:39.395Z,3.60
2022-08-09T09:03:22.714Z,4.45
2022-08-09T09:06:07.898Z,4.57
2022-08-09T09:08:44.286Z,5.13
2022-08-09T09:11:22.369Z,2.90
2022-08-09T09:13:58.634Z,5.70
2022-08-09T09:16:34.107Z,3.60
2022-08-09T09:22:05.386Z,2.28
2022-08-09T09:24:43.884Z,3.25
2022-08-09T09:28:02.974Z,2.22
2022-08-09T09:30:54.656Z,3.78
2022-08-09T09:33:44.625Z,2.47
2022-08-09T09:36:20.779Z,5.13
2022-08-09T09:38:57.028Z,4.90
2022-08-09T09:41:48.868Z,4.85
2022-08-09T09:44:27.785Z,4.53
2022-08-09T09:47:12.143Z,2.88
2022-08-09T09:49:56.169Z,3.30
2022-08-09T09:52:36.439Z,7.43
2022-08-09T09:55:24.123Z,4.45
2022-08-09T09:58:16.862Z,3.22
2022-08-09T10:00:54.898Z,4.25
2022-08-09T10:03:57.545Z,4.18
2022-08-09T10:06:32.568Z,2.72
2022-08-09T10:09:11.748Z,6.00
2022-08-09T10:12:07.685Z,3.63
2022-08-09T10:14:48.743Z,3.85
2022-08-09T10:17:50.965Z,2.70
2022-08-09T10:20:32.908Z,5.90
2022-08-09T10:23:18.533Z,4.20
2022-08-09T10:26:06.094Z,5.10
2022-08-09T10:28:39.895Z,4.45
2022-08-09T10:34:08.337Z,2.72
2022-08-09T10:36:56.766Z,3.80
2022-08-09T10:39:28.521Z,3.33
2022-08-09T10:41:58.063Z,3.67
2022-08-09T10:44:31.908Z,2.83
2022-08-09T10:48:19.266Z,4.50
2022-08-09T10:50:51.285Z,3.92
2022-08-09T10:53:54.514Z,6.35
2022-08-09T10:56:27.327Z,4.05
2022-08-09T10:59:03.539Z,4.35
2022-08-09T11:03:13.708Z,3.28
2022-08-09T11:05:25.331Z,5.82
2022-08-09T11:08:43.783Z,3.47
2022-08-09T11:11:23.145Z,5.68
2022-08-09T11:14:32.325Z,5.97
2022-08-09T11:17:01.562Z,2.75
2022-08-09T11:20:12.027Z,2.65
2022-08-09T11:23:02.941Z,3.78
2022-08-09T11:25:54.693Z,2.95
2022-08-09T11:28:56.499Z,4.15
2022-08-09T11:31:52.770Z,3.83
2022-08-09T11:34:44.793Z,3.92
2022-08-09T11:37:41.057Z,3.17
2022-08-09T11:40:17.907Z,6.63
2022-08-09T11:42:49.900Z,4.22
2022-08-09T11:45:42.561Z,5.97
2022-08-09T11:48:27.676Z,3.90
2022-08-09T11:51:38.090Z,3.78
2022-08-09T11:54:28.946Z,4.25
2022-08-09T11:57:47.649Z,2.90
2022-08-09T12:00:33.812Z,5.07
2022-08-09T12:03:50.370Z,2.92
2022-08-09T12:05:56.327Z,3.88
2022-08-09T12:08:27.650Z,3.45
2022-08-09T12:10:59.144Z,6.95
2022-08-09T12:14:09.600Z,2.50
2022-08-09T12:16:38.393Z,4.75
2022-08-09T12:19:11.429Z,6.07
2022-08-09T12:21:50.643Z,3.60
2022-08-09T12:24:25.786Z,5.13
2022-08-09T12:29:11.994Z,4.43
2022-08-09T12:30:04.263Z,2.83
2022-08-09T12:32:48.714Z,4.32
2022-08-09T12:35:19.425Z,4.72
2022-08-09T12:37:52.164Z,5.28
2022-08-09T12:40:27.344Z,4.40
2022-08-09T12:42:57.599Z,3.97
2022-08-09T12:45:34.733Z,3.42
2022-08-09T12:48:27.867Z,4.72
2022-08-09T12:51:04.039Z,6.90
2022-08-09T12:53:38.618Z,4.68
2022-08-09T12:56:43.829Z,6.05
2022-08-09T12:59:13.974Z,6.97
2022-08-09T13:01:48.605Z,8.23
2022-08-09T13:04:36.359Z,8.23
2022-08-09T13:07:16.694Z,6.32
2022-08-09T13:09:55.380Z,2.13
2022-08-09T13:12:29.744Z,3.67
2022-08-09T13:15:08.697Z,4.78
2022-08-09T13:18:03.723Z,4.63
2022-08-09T13:20:37.251Z,4.82
2022-08-09T13:24:15.668Z,3.55
2022-08-09T13:25:59.275Z,4.70
2022-08-09T13:28:35.635Z,4.00
2022-08-09T13:32:13.653Z,3.92
2022-08-09T13:33:57.798Z,3.35
2022-08-09T13:36:40.826Z,4.15
2022-08-09T13:41:19.327Z,4.53
2022-08-09T13:42:03.549Z,5.53
2022-08-09T13:44:34.652Z,5.28
2022-08-09T13:47:28.901Z,2.65
2022-08-09T13:49:57.766Z,4.07
2022-08-09T13:52:33.979Z,3.65
2022-08-09T13:55:07.319Z,2.60
2022-08-09T13:57:41.018Z,4.32
2022-08-09T14:00:15.491Z,7.40
2022-08-09T14:03:03.544Z,4.18
2022-08-09T14:06:01.184Z,3.20
2022-08-09T14:08:31.971Z,4.13
2022-08-09T14:11:01.517Z,3.67
2022-08-09T14:14:23.421Z,2.63
2022-08-09T14:16:28.709Z,5.03
2022-08-09T14:19:00.074Z,3.88
2022-08-09T14:21:32.225Z,5.22
2022-08-09T14:24:10.045Z,3.22
2022-08-09T14:26:40.090Z,3.65
2022-08-09T14:30:18.382Z,6.03
2022-08-09T14:32:10.636Z,7.22
2022-08-09T14:34:42.356Z,4.32
2022-08-09T14:37:11.966Z,5.57
2022-08-09T14:39:47.733Z,5.15
2022-08-09T14:42:31.647Z,6.45
2022-08-09T14:46:40.280Z,6.18
2022-08-09T14:47:58.009Z,4.72
2022-08-09T14:50:31.491Z,5.45
2022-08-09T14:53:02.262Z,4.00
2022-08-09T14:55:33.096Z,5.18
2022-08-09T14:58:05.270Z,4.65
2022-08-09T15:00:36.699Z,3.90
2022-08-09T15:03:09.049Z,7.13
2022-08-09T15:05:52.593Z,3.50
2022-08-09T15:08:26.647Z,4.25
2022-08-09T15:11:04.882Z,4.22
2022-08-09T15:13:56.355Z,2.65
2022-08-09T15:16:30.481Z,10.68
2022-08-09T15:19:05.634Z,4.25
2022-08-09T15:22:01.215Z,4.55
2022-08-09T15:24:31.097Z,4.82
2022-08-09T15:27:01.286Z,4.38
2022-08-09T15:30:56.375Z,4.15
2022-08-09T15:32:28.552Z,4.25
2022-08-09T15:35:01.024Z,6.75
2022-08-09T15:37:56.805Z,5.13
2022-08-09T15:40:32.127Z,5.90
2022-08-09T15:43:03.785Z,3.08
2022-08-09T15:46:07.438Z,3.25
2022-08-09T15:48:29.072Z,3.80
2022-08-09T15:50:59.800Z,3.47
2022-08-09T15:54:03.417Z,4.47
2022-08-09T15:56:21.721Z,3.63
2022-08-09T15:59:00.221Z,3.35
2022-08-09T16:01:38.419Z,3.13
2022-08-09T16:04:13.561Z,3.63
2022-08-09T16:06:44.612Z,5.05
2022-08-09T16:09:19.760Z,4.75
2022-08-09T16:12:11.521Z,3.80
2022-08-09T16:14:42.462Z,5.88
2022-08-09T16:17:12.038Z,2.03
2022-08-09T16:19:48.980Z,4.22
2022-08-09T16:22:33.758Z,4.63
2022-08-09T16:25:03.481Z,6.20
2022-08-09T16:27:36.197Z,7.45
2022-08-09T16:30:15.349Z,4.18
2022-08-09T16:33:10.171Z,3.50
2022-08-09T16:35:57.242Z,4.20
2022-08-09T16:38:30.026Z,8.52
2022-08-09T16:40:59.443Z,3.60
2022-08-09T16:43:33.704Z,3.60
2022-08-09T16:46:12.474Z,3.85
2022-08-09T16:48:53.193Z,4.97
2022-08-09T16:51:28.514Z,8.15
2022-08-09T16:56:49.411Z,4.18
2022-08-09T16:59:20.006Z,3.00
2022-08-09T17:01:52.878Z,3.75
2022-08-09T17:04:28.171Z,3.65
2022-08-09T17:08:45.395Z,5.15
2022-08-09T17:09:48.850Z,5.70
2022-08-09T17:12:19.704Z,2.55
2022-08-09T17:14:54.880Z,8.55
2022-08-09T17:17:28.015Z,5.25
2022-08-09T17:20:35.691Z,7.38
2022-08-09T17:22:53.238Z,3.95
2022-08-09T17:25:23.738Z,3.35
2022-08-09T17:27:55.219Z,3.85
2022-08-09T17:30:30.657Z,4.70
2022-08-09T17:33:05.663Z,3.30
2022-08-09T17:35:52.256Z,4.13
2022-08-09T17:38:31.968Z,4.22
2022-08-09T17:41:04.756Z,5.35
2022-08-09T17:43:37.014Z,5.88
2022-08-09T17:46:09.296Z,2.20
2022-08-09T17:48:51.984Z,2.95
2022-08-09T17:51:22.693Z,2.95
2022-08-09T17:53:55.832Z,7.40
2022-08-09T17:56:29.151Z,3.22
2022-08-09T17:59:09.315Z,5.15
2022-08-09T18:02:07.912Z,5.40
2022-08-09T18:04:34.120Z,7.30
2022-08-09T18:07:07.660Z,4.55
2022-08-09T18:09:41.365Z,4.75
2022-08-09T18:12:15.084Z,4.97
2022-08-09T18:14:53.707Z,3.92
2022-08-09T18:18:02.861Z,5.65
2022-08-09T18:20:59.965Z,4.22
2022-08-09T18:23:14.200Z,6.30
2022-08-09T18:25:59.407Z,3.63
2022-08-09T18:30:40.711Z,3.70
2022-08-09T18:31:32.098Z,8.15
2022-08-09T18:34:10.494Z,7.25
2022-08-09T18:36:41.753Z,3.80
2022-08-09T18:39:18.799Z,5.13
2022-08-09T18:41:52.536Z,6.63
2022-08-09T18:44:30.205Z,3.17
2022-08-09T18:47:08.329Z,5.28
2022-08-09T18:49:46.247Z,5.00
2022-08-09T18:52:28.568Z,4.68
2022-08-09T18:55:04.067Z,4.93
2022-08-09T18:57:38.592Z,2.60
2022-08-09T19:00:20.024Z,4.20
2022-08-09T19:02:51.155Z,8.02
2022-08-09T19:05:49.109Z,3.03
2022-08-09T19:08:18.557Z,7.18
2022-08-09T19:10:49.117Z,4.63
2022-08-09T19:13:37.921Z,4.40
2022-08-09T19:16:09.307Z,6.93
2022-08-09T19:18:44.273Z,3.35
2022-08-09T19:21:16.850Z,4.47
2022-08-09T19:24:32.337Z,3.72
2022-08-09T19:26:44.779Z,6.07
2022-08-09T19:29:21.492Z,8.00
2022-08-09T19:31:51.603Z,6.90
2022-08-09T19:34:24.569Z,3.08
2022-08-09T19:36:56.478Z,5.13
2022-08-09T19:40:02.903Z,5.18
2022-08-09T19:42:28.345Z,5.00
2022-08-09T19:45:00.645Z,5.72
2022-08-09T19:47:32.086Z,5.20
2022-08-09T19:50:48.867Z,7.88
2022-08-09T19:52:58.234Z,2.50
2022-08-09T19:55:39.193Z,5.82
2022-08-09T19:58:29.760Z,4.43
2022-08-09T20:01:00.307Z,4.22
2022-08-09T20:04:10.800Z,3.38
2022-08-09T20:06:24.018Z,5.70
2022-08-09T20:08:59.611Z,4.28
2022-08-09T20:11:42.846Z,4.85
2022-08-09T20:14:19.433Z,4.43
2022-08-09T20:16:54.469Z,5.10
2022-08-09T20:19:47.543Z,6.88
2022-08-09T20:22:14.166Z,6.03
2022-08-09T20:24:54.214Z,6.40
2022-08-09T20:27:24.786Z,3.47
2022-08-09T20:30:01.097Z,3.63
2022-08-09T20:32:33.626Z,4.05
2022-08-09T20:35:03.917Z,7.32
2022-08-09T20:38:18.643Z,8.02
2022-08-09T20:40:27.659Z,3.78
2022-08-09T20:43:18.200Z,4.07
2022-08-09T20:45:59.543Z,4.05
2022-08-09T20:48:40.162Z,3.38
2022-08-09T20:51:16.787Z,9.80
2022-08-09T20:53:49.552Z,3.25
2022-08-09T20:56:21.887Z,5.25
2022-08-09T20:58:58.889Z,6.35
2022-08-09T21:01:34.624Z,6.07
2022-08-09T21:05:56.276Z,8.07
2022-08-09T21:07:14.113Z,4.00
2022-08-09T21:09:55.805Z,3.08
2022-08-09T21:15:23.809Z,4.30
2022-08-09T21:18:21.861Z,4.03
2022-08-09T21:20:54.382Z,4.50
2022-08-09T21:23:35.974Z,4.95
2022-08-09T21:26:15.664Z,5.03
2022-08-09T21:28:55.794Z,6.07
2022-08-09T21:31:49.405Z,4.07
2022-08-09T21:34:21.095Z,5.18
2022-08-09T21:36:58.192Z,2.97
2022-08-09T21:39:28.171Z,6.07
2022-08-09T21:42:16.263Z,6.05
2022-08-09T21:44:45.927Z,4.68
2022-08-09T21:47:18.196Z,2.30
2022-08-09T21:49:48.322Z,4.88
2022-08-09T21:52:20.794Z,5.03
2022-08-09T21:55:03.207Z,4.68
2022-08-09T21:57:38.665Z,5.10
2022-08-09T22:00:33.187Z,3.90
2022-08-09T22:03:06.819Z,6.18
2022-08-09T22:05:42.432Z,2.58
2022-08-09T22:08:15.292Z,6.95
2022-08-09T22:11:49.108Z,4.72
2022-08-09T22:13:37.219Z,3.13
2022-08-09T22:16:10.105Z,5.13
2022-08-09T22:18:53.999Z,4.47
2022-08-09T22:21:45.316Z,4.68
2022-08-09T22:24:24.272Z,4.15
2022-08-09T22:26:54.321Z,4.87
2022-08-09T22:29:28.907Z,3.97
2022-08-09T22:32:29.424Z,5.05
2022-08-09T22:35:06.282Z,5.87
2022-08-09T22:37:40.427Z,6.30
2022-08-09T22:40:20.022Z,4.80
2022-08-09T22:42:49.964Z,6.00
2022-08-09T22:48:15.791Z,4.23
2022-08-09T22:48:36.127Z,3.73
2022-08-09T22:51:01.050Z,3.80
2022-08-09T22:53:58.495Z,4.70
2022-08-09T22:56:31.384Z,6.70
2022-08-09T22:59:06.013Z,6.97
2022-08-09T23:01:52.323Z,4.90
2022-08-09T23:04:21.586Z,4.33
2022-08-09T23:07:11.259Z,3.43
2022-08-09T23:09:42.766Z,5.30
2022-08-09T23:12:11.698Z,4.23
2022-08-09T23:14:42.502Z,3.03
2022-08-09T23:17:11.944Z,3.20
2022-08-09T23:20:06.903Z,5.50
2022-08-09T23:22:31.345Z,4.80
2022-08-09T23:25:00.162Z,3.57
2022-08-09T23:27:28.906Z,3.30
2022-08-09T23:29:57.668Z,4.00
2022-08-09T23:32:27.557Z,3.30
2022-08-09T23:34:56.386Z,6.17
2022-08-09T23:37:25.674Z,5.27
2022-08-09T23:39:56.056Z,5.77
2022-08-09T23:42:24.832Z,3.60
2022-08-09T23:44:53.683Z,4.43
2022-08-09T23:47:22.533Z,6.53
2022-08-09T23:49:51.329Z,5.53
2022-08-09T23:52:20.057Z,3.83
2022-08-09T23:54:53.281Z,7.83
2022-08-09T23:57:23.844Z,6.73
